Terminal Aerodrome Forecast
Issued by NWS

Home | Current Version | Previous Version | Text Only | Print | Product List | Glossary On
Versions: 1 2 3 4 5 6 7 8 9 10 11 12 13 14 15 16 17 18 19 20 21 22 23 24
000
FTUS46 KSGX 191124
TAFSAN
TAF
KSAN 191124Z 1912/2018 VRB03KT P6SM OVC015
     FM191730 VRB04KT P6SM SCT015
     FM191900 27008KT P6SM FEW020 FEW200
     FM200200 VRB04KT P6SM SCT020 SCT200
     FM200300 VRB03KT P6SM OVC020
     FM201500 29009KT P6SM BKN030=

USA.gov is the U.S. government's official web portal to all federal, state and local government web resources and services.